sensor_id;sensor_type;location;lat;lon;timestamp;P1;durP1;ratioP1;P2;durP2;ratioP2
17177;SDS011;8704;52.006;4.374;2023-06-14T00:02:08;6.22;;;3.40;;
17177;SDS011;8704;52.006;4.374;2023-06-14T00:04:37;5.38;;;3.38;;
17177;SDS011;8704;52.006;4.374;2023-06-14T00:07:09;6.07;;;3.35;;
17177;SDS011;8704;52.006;4.374;2023-06-14T00:09:40;7.00;;;3.40;;
17177;SDS011;8704;52.006;4.374;2023-06-14T00:12:08;7.78;;;3.33;;
17177;SDS011;8704;52.006;4.374;2023-06-14T00:14:36;8.45;;;3.60;;
17177;SDS011;8704;52.006;4.374;2023-06-14T00:17:04;5.55;;;3.47;;
17177;SDS011;8704;52.006;4.374;2023-06-14T00:19:33;7.28;;;3.60;;
17177;SDS011;8704;52.006;4.374;2023-06-14T00:22:03;6.28;;;3.60;;
17177;SDS011;8704;52.006;4.374;2023-06-14T00:24:32;4.53;;;3.15;;
17177;SDS011;8704;52.006;4.374;2023-06-14T00:27:00;7.07;;;3.38;;
17177;SDS011;8704;52.006;4.374;2023-06-14T00:29:28;7.72;;;3.92;;
17177;SDS011;8704;52.006;4.374;2023-06-14T00:31:56;4.57;;;3.25;;
17177;SDS011;8704;52.006;4.374;2023-06-14T00:34:24;5.72;;;3.47;;
17177;SDS011;8704;52.006;4.374;2023-06-14T00:36:52;5.43;;;3.70;;
17177;SDS011;8704;52.006;4.374;2023-06-14T00:39:20;5.20;;;3.38;;
17177;SDS011;8704;52.006;4.374;2023-06-14T00:41:50;6.00;;;3.83;;
17177;SDS011;8704;52.006;4.374;2023-06-14T00:44:17;6.93;;;3.13;;
17177;SDS011;8704;52.006;4.374;2023-06-14T00:46:46;7.20;;;3.65;;
17177;SDS011;8704;52.006;4.374;2023-06-14T00:49:14;6.63;;;3.33;;
17177;SDS011;8704;52.006;4.374;2023-06-14T00:51:43;6.63;;;3.47;;
17177;SDS011;8704;52.006;4.374;2023-06-14T00:54:11;6.82;;;3.65;;
17177;SDS011;8704;52.006;4.374;2023-06-14T00:56:39;7.40;;;3.67;;
17177;SDS011;8704;52.006;4.374;2023-06-14T00:59:10;5.20;;;3.40;;
17177;SDS011;8704;52.006;4.374;2023-06-14T01:01:38;7.18;;;4.18;;
17177;SDS011;8704;52.006;4.374;2023-06-14T01:04:06;8.65;;;3.78;;
17177;SDS011;8704;52.006;4.374;2023-06-14T01:06:36;6.55;;;3.70;;
17177;SDS011;8704;52.006;4.374;2023-06-14T01:09:14;6.25;;;3.35;;
17177;SDS011;8704;52.006;4.374;2023-06-14T01:11:48;6.93;;;3.45;;
17177;SDS011;8704;52.006;4.374;2023-06-14T01:14:23;6.32;;;3.28;;
17177;SDS011;8704;52.006;4.374;2023-06-14T01:16:52;8.48;;;4.30;;
17177;SDS011;8704;52.006;4.374;2023-06-14T01:19:22;7.22;;;3.70;;
17177;SDS011;8704;52.006;4.374;2023-06-14T01:21:52;8.88;;;3.60;;
17177;SDS011;8704;52.006;4.374;2023-06-14T01:24:22;9.45;;;3.63;;
17177;SDS011;8704;52.006;4.374;2023-06-14T01:26:52;7.25;;;3.38;;
17177;SDS011;8704;52.006;4.374;2023-06-14T01:29:22;7.60;;;3.50;;
17177;SDS011;8704;52.006;4.374;2023-06-14T01:31:54;5.32;;;3.38;;
17177;SDS011;8704;52.006;4.374;2023-06-14T01:34:22;6.65;;;3.33;;
17177;SDS011;8704;52.006;4.374;2023-06-14T01:36:50;5.43;;;3.50;;
17177;SDS011;8704;52.006;4.374;2023-06-14T01:39:19;5.80;;;3.40;;
17177;SDS011;8704;52.006;4.374;2023-06-14T01:41:49;6.82;;;3.70;;
17177;SDS011;8704;52.006;4.374;2023-06-14T01:44:18;7.28;;;3.92;;
17177;SDS011;8704;52.006;4.374;2023-06-14T01:46:47;7.65;;;4.00;;
17177;SDS011;8704;52.006;4.374;2023-06-14T01:49:15;6.90;;;3.97;;
17177;SDS011;8704;52.006;4.374;2023-06-14T01:51:43;5.63;;;4.00;;
17177;SDS011;8704;52.006;4.374;2023-06-14T01:54:11;6.43;;;3.42;;
17177;SDS011;8704;52.006;4.374;2023-06-14T01:56:39;7.20;;;3.83;;
17177;SDS011;8704;52.006;4.374;2023-06-14T01:59:09;6.38;;;3.55;;
17177;SDS011;8704;52.006;4.374;2023-06-14T02:01:37;7.53;;;3.70;;
17177;SDS011;8704;52.006;4.374;2023-06-14T02:04:05;7.35;;;3.72;;
17177;SDS011;8704;52.006;4.374;2023-06-14T02:06:32;7.55;;;3.75;;
17177;SDS011;8704;52.006;4.374;2023-06-14T02:09:01;6.45;;;3.67;;
17177;SDS011;8704;52.006;4.374;2023-06-14T02:11:30;8.38;;;3.58;;
17177;SDS011;8704;52.006;4.374;2023-06-14T02:13:58;6.30;;;3.63;;
17177;SDS011;8704;52.006;4.374;2023-06-14T02:16:28;5.82;;;4.00;;
17177;SDS011;8704;52.006;4.374;2023-06-14T02:18:56;6.50;;;3.25;;
17177;SDS011;8704;52.006;4.374;2023-06-14T02:21:24;9.20;;;3.38;;
17177;SDS011;8704;52.006;4.374;2023-06-14T02:23:52;7.20;;;3.40;;
17177;SDS011;8704;52.006;4.374;2023-06-14T02:26:20;5.35;;;3.42;;
17177;SDS011;8704;52.006;4.374;2023-06-14T02:28:48;6.95;;;3.78;;
17177;SDS011;8704;52.006;4.374;2023-06-14T02:31:16;6.38;;;3.30;;
17177;SDS011;8704;52.006;4.374;2023-06-14T02:33:45;7.13;;;3.65;;
17177;SDS011;8704;52.006;4.374;2023-06-14T02:36:13;6.25;;;3.70;;
17177;SDS011;8704;52.006;4.374;2023-06-14T02:38:41;7.00;;;3.60;;
17177;SDS011;8704;52.006;4.374;2023-06-14T02:41:09;6.30;;;3.70;;
17177;SDS011;8704;52.006;4.374;2023-06-14T02:43:37;5.68;;;3.58;;
17177;SDS011;8704;52.006;4.374;2023-06-14T02:46:05;8.15;;;3.60;;
17177;SDS011;8704;52.006;4.374;2023-06-14T02:48:33;4.93;;;3.42;;
17177;SDS011;8704;52.006;4.374;2023-06-14T02:51:02;8.30;;;3.78;;
17177;SDS011;8704;52.006;4.374;2023-06-14T02:53:34;9.55;;;3.90;;
17177;SDS011;8704;52.006;4.374;2023-06-14T02:56:03;6.75;;;3.15;;
17177;SDS011;8704;52.006;4.374;2023-06-14T02:58:31;7.75;;;3.40;;
17177;SDS011;8704;52.006;4.374;2023-06-14T03:00:59;5.38;;;3.00;;
17177;SDS011;8704;52.006;4.374;2023-06-14T03:03:29;5.95;;;3.40;;
17177;SDS011;8704;52.006;4.374;2023-06-14T03:05:57;8.10;;;3.72;;
17177;SDS011;8704;52.006;4.374;2023-06-14T03:08:32;5.60;;;3.50;;
17177;SDS011;8704;52.006;4.374;2023-06-14T03:11:05;5.65;;;3.55;;
17177;SDS011;8704;52.006;4.374;2023-06-14T03:13:33;6.72;;;3.72;;
17177;SDS011;8704;52.006;4.374;2023-06-14T03:16:01;7.65;;;3.58;;
17177;SDS011;8704;52.006;4.374;2023-06-14T03:18:29;6.80;;;3.70;;
17177;SDS011;8704;52.006;4.374;2023-06-14T03:23:29;7.75;;;4.00;;
17177;SDS011;8704;52.006;4.374;2023-06-14T03:25:59;6.70;;;3.58;;
17177;SDS011;8704;52.006;4.374;2023-06-14T03:28:26;5.90;;;3.33;;
17177;SDS011;8704;52.006;4.374;2023-06-14T03:30:54;6.55;;;3.78;;
17177;SDS011;8704;52.006;4.374;2023-06-14T03:33:22;7.35;;;3.28;;
17177;SDS011;8704;52.006;4.374;2023-06-14T03:35:51;9.80;;;3.97;;
17177;SDS011;8704;52.006;4.374;2023-06-14T03:38:19;5.50;;;3.50;;
17177;SDS011;8704;52.006;4.374;2023-06-14T03:40:47;9.00;;;3.50;;
17177;SDS011;8704;52.006;4.374;2023-06-14T03:43:16;7.03;;;3.90;;
17177;SDS011;8704;52.006;4.374;2023-06-14T03:45:44;5.15;;;3.20;;
17177;SDS011;8704;52.006;4.374;2023-06-14T03:48:12;6.28;;;3.47;;
17177;SDS011;8704;52.006;4.374;2023-06-14T03:50:40;8.35;;;3.97;;
17177;SDS011;8704;52.006;4.374;2023-06-14T03:53:10;6.20;;;3.55;;
17177;SDS011;8704;52.006;4.374;2023-06-14T03:55:39;5.88;;;3.75;;
17177;SDS011;8704;52.006;4.374;2023-06-14T03:58:10;9.70;;;3.97;;
17177;SDS011;8704;52.006;4.374;2023-06-14T04:00:41;7.90;;;3.60;;
17177;SDS011;8704;52.006;4.374;2023-06-14T04:03:09;9.10;;;3.50;;
17177;SDS011;8704;52.006;4.374;2023-06-14T04:05:39;7.47;;;4.15;;
17177;SDS011;8704;52.006;4.374;2023-06-14T04:08:08;7.70;;;3.50;;
17177;SDS011;8704;52.006;4.374;2023-06-14T04:10:36;6.07;;;3.35;;
17177;SDS011;8704;52.006;4.374;2023-06-14T04:13:04;8.10;;;3.60;;
17177;SDS011;8704;52.006;4.374;2023-06-14T04:15:33;4.88;;;3.40;;
17177;SDS011;8704;52.006;4.374;2023-06-14T04:18:03;9.13;;;3.45;;
17177;SDS011;8704;52.006;4.374;2023-06-14T04:20:31;7.53;;;3.55;;
17177;SDS011;8704;52.006;4.374;2023-06-14T04:23:10;9.18;;;3.95;;
17177;SDS011;8704;52.006;4.374;2023-06-14T04:25:39;10.35;;;3.55;;
17177;SDS011;8704;52.006;4.374;2023-06-14T04:28:11;6.18;;;3.17;;
17177;SDS011;8704;52.006;4.374;2023-06-14T04:30:41;6.15;;;3.65;;
17177;SDS011;8704;52.006;4.374;2023-06-14T04:33:11;8.48;;;3.35;;
17177;SDS011;8704;52.006;4.374;2023-06-14T04:35:39;9.30;;;3.85;;
17177;SDS011;8704;52.006;4.374;2023-06-14T04:38:09;8.10;;;3.90;;
17177;SDS011;8704;52.006;4.374;2023-06-14T04:40:37;5.55;;;3.75;;
17177;SDS011;8704;52.006;4.374;2023-06-14T04:45:38;8.90;;;3.42;;
17177;SDS011;8704;52.006;4.374;2023-06-14T04:48:07;7.38;;;4.03;;
17177;SDS011;8704;52.006;4.374;2023-06-14T04:50:38;10.48;;;3.45;;
17177;SDS011;8704;52.006;4.374;2023-06-14T04:53:07;8.35;;;3.40;;
17177;SDS011;8704;52.006;4.374;2023-06-14T04:55:35;6.28;;;3.20;;
17177;SDS011;8704;52.006;4.374;2023-06-14T04:58:03;5.82;;;3.42;;
17177;SDS011;8704;52.006;4.374;2023-06-14T05:00:31;5.78;;;3.20;;
17177;SDS011;8704;52.006;4.374;2023-06-14T05:02:59;6.80;;;3.50;;
17177;SDS011;8704;52.006;4.374;2023-06-14T05:05:27;9.63;;;3.60;;
17177;SDS011;8704;52.006;4.374;2023-06-14T05:07:56;6.43;;;3.38;;
17177;SDS011;8704;52.006;4.374;2023-06-14T05:10:24;5.72;;;3.40;;
17177;SDS011;8704;52.006;4.374;2023-06-14T05:12:52;5.47;;;3.13;;
17177;SDS011;8704;52.006;4.374;2023-06-14T05:15:20;6.10;;;3.40;;
17177;SDS011;8704;52.006;4.374;2023-06-14T05:17:51;8.45;;;3.58;;
17177;SDS011;8704;52.006;4.374;2023-06-14T05:20:21;6.70;;;3.47;;
17177;SDS011;8704;52.006;4.374;2023-06-14T05:22:50;7.30;;;3.47;;
17177;SDS011;8704;52.006;4.374;2023-06-14T05:25:20;10.43;;;3.45;;
17177;SDS011;8704;52.006;4.374;2023-06-14T05:27:48;8.70;;;3.53;;
17177;SDS011;8704;52.006;4.374;2023-06-14T05:30:16;7.93;;;3.53;;
17177;SDS011;8704;52.006;4.374;2023-06-14T05:32:44;9.73;;;3.72;;
17177;SDS011;8704;52.006;4.374;2023-06-14T05:35:12;6.95;;;3.13;;
17177;SDS011;8704;52.006;4.374;2023-06-14T05:37:41;6.32;;;3.35;;
17177;SDS011;8704;52.006;4.374;2023-06-14T05:40:09;7.32;;;3.25;;
17177;SDS011;8704;52.006;4.374;2023-06-14T05:42:39;8.07;;;3.30;;
17177;SDS011;8704;52.006;4.374;2023-06-14T05:45:07;7.68;;;3.38;;
17177;SDS011;8704;52.006;4.374;2023-06-14T05:47:35;7.13;;;3.35;;
17177;SDS011;8704;52.006;4.374;2023-06-14T05:50:04;8.00;;;3.70;;
17177;SDS011;8704;52.006;4.374;2023-06-14T05:52:33;6.05;;;3.30;;
17177;SDS011;8704;52.006;4.374;2023-06-14T05:55:03;9.02;;;3.40;;
17177;SDS011;8704;52.006;4.374;2023-06-14T05:57:32;7.03;;;3.40;;
17177;SDS011;8704;52.006;4.374;2023-06-14T06:00:01;5.10;;;3.28;;
17177;SDS011;8704;52.006;4.374;2023-06-14T06:02:37;8.68;;;3.60;;
17177;SDS011;8704;52.006;4.374;2023-06-14T06:05:05;5.75;;;3.42;;
17177;SDS011;8704;52.006;4.374;2023-06-14T06:07:34;6.35;;;3.53;;
17177;SDS011;8704;52.006;4.374;2023-06-14T06:10:03;7.65;;;3.70;;
17177;SDS011;8704;52.006;4.374;2023-06-14T06:12:32;7.35;;;3.50;;
17177;SDS011;8704;52.006;4.374;2023-06-14T06:15:02;8.88;;;3.80;;
17177;SDS011;8704;52.006;4.374;2023-06-14T06:17:30;7.53;;;3.60;;
17177;SDS011;8704;52.006;4.374;2023-06-14T06:20:11;9.88;;;3.55;;
17177;SDS011;8704;52.006;4.374;2023-06-14T06:22:39;9.43;;;3.83;;
17177;SDS011;8704;52.006;4.374;2023-06-14T06:25:08;8.48;;;3.60;;
17177;SDS011;8704;52.006;4.374;2023-06-14T06:27:36;8.68;;;3.67;;
17177;SDS011;8704;52.006;4.374;2023-06-14T06:30:06;5.32;;;3.50;;
17177;SDS011;8704;52.006;4.374;2023-06-14T06:32:35;7.78;;;3.85;;
17177;SDS011;8704;52.006;4.374;2023-06-14T06:35:03;7.97;;;3.15;;
17177;SDS011;8704;52.006;4.374;2023-06-14T06:37:32;6.30;;;3.70;;
17177;SDS011;8704;52.006;4.374;2023-06-14T06:40:00;8.48;;;3.72;;
17177;SDS011;8704;52.006;4.374;2023-06-14T06:42:29;10.73;;;3.72;;
17177;SDS011;8704;52.006;4.374;2023-06-14T06:44:57;9.35;;;3.70;;
17177;SDS011;8704;52.006;4.374;2023-06-14T06:47:26;8.80;;;3.72;;
17177;SDS011;8704;52.006;4.374;2023-06-14T06:49:58;7.22;;;3.40;;
17177;SDS011;8704;52.006;4.374;2023-06-14T06:52:25;5.15;;;3.40;;
17177;SDS011;8704;52.006;4.374;2023-06-14T06:54:53;6.50;;;3.53;;
17177;SDS011;8704;52.006;4.374;2023-06-14T06:57:22;7.97;;;3.85;;
17177;SDS011;8704;52.006;4.374;2023-06-14T06:59:50;10.65;;;3.78;;
17177;SDS011;8704;52.006;4.374;2023-06-14T07:02:18;9.07;;;4.00;;
17177;SDS011;8704;52.006;4.374;2023-06-14T07:04:47;7.30;;;3.92;;
17177;SDS011;8704;52.006;4.374;2023-06-14T07:07:15;5.88;;;4.10;;
17177;SDS011;8704;52.006;4.374;2023-06-14T07:09:44;6.80;;;3.72;;
17177;SDS011;8704;52.006;4.374;2023-06-14T07:12:12;8.15;;;3.72;;
17177;SDS011;8704;52.006;4.374;2023-06-14T07:14:40;12.00;;;4.00;;
17177;SDS011;8704;52.006;4.374;2023-06-14T07:17:08;6.85;;;3.65;;
17177;SDS011;8704;52.006;4.374;2023-06-14T07:19:37;8.65;;;3.80;;
17177;SDS011;8704;52.006;4.374;2023-06-14T07:22:06;9.90;;;4.10;;
17177;SDS011;8704;52.006;4.374;2023-06-14T07:24:34;8.57;;;3.83;;
17177;SDS011;8704;52.006;4.374;2023-06-14T07:27:03;7.55;;;3.55;;
17177;SDS011;8704;52.006;4.374;2023-06-14T07:29:31;7.68;;;4.03;;
17177;SDS011;8704;52.006;4.374;2023-06-14T07:31:59;9.63;;;4.05;;
17177;SDS011;8704;52.006;4.374;2023-06-14T07:34:26;7.72;;;4.07;;
17177;SDS011;8704;52.006;4.374;2023-06-14T07:36:54;11.70;;;4.03;;
17177;SDS011;8704;52.006;4.374;2023-06-14T07:39:24;7.88;;;3.88;;
17177;SDS011;8704;52.006;4.374;2023-06-14T07:41:52;5.25;;;3.67;;
17177;SDS011;8704;52.006;4.374;2023-06-14T07:44:20;6.93;;;3.53;;
17177;SDS011;8704;52.006;4.374;2023-06-14T07:46:47;8.05;;;4.03;;
17177;SDS011;8704;52.006;4.374;2023-06-14T07:49:16;11.13;;;3.83;;
17177;SDS011;8704;52.006;4.374;2023-06-14T07:51:44;7.85;;;3.70;;
17177;SDS011;8704;52.006;4.374;2023-06-14T07:54:13;9.38;;;4.15;;
17177;SDS011;8704;52.006;4.374;2023-06-14T07:56:43;6.82;;;3.90;;
17177;SDS011;8704;52.006;4.374;2023-06-14T07:59:11;9.48;;;4.10;;
17177;SDS011;8704;52.006;4.374;2023-06-14T08:01:39;7.53;;;3.95;;
17177;SDS011;8704;52.006;4.374;2023-06-14T08:04:13;7.57;;;4.45;;
17177;SDS011;8704;52.006;4.374;2023-06-14T08:06:41;8.45;;;3.53;;
17177;SDS011;8704;52.006;4.374;2023-06-14T08:09:10;6.85;;;3.70;;
17177;SDS011;8704;52.006;4.374;2023-06-14T08:11:38;6.78;;;3.90;;
17177;SDS011;8704;52.006;4.374;2023-06-14T08:14:07;8.88;;;4.28;;
17177;SDS011;8704;52.006;4.374;2023-06-14T08:16:35;8.95;;;4.20;;
17177;SDS011;8704;52.006;4.374;2023-06-14T08:19:04;6.40;;;3.95;;
17177;SDS011;8704;52.006;4.374;2023-06-14T08:21:35;6.82;;;3.72;;
17177;SDS011;8704;52.006;4.374;2023-06-14T08:24:03;9.15;;;4.25;;
17177;SDS011;8704;52.006;4.374;2023-06-14T08:26:32;9.02;;;3.72;;
17177;SDS011;8704;52.006;4.374;2023-06-14T08:29:00;9.52;;;4.05;;
17177;SDS011;8704;52.006;4.374;2023-06-14T08:31:29;7.47;;;4.15;;
17177;SDS011;8704;52.006;4.374;2023-06-14T08:33:58;7.72;;;4.00;;
17177;SDS011;8704;52.006;4.374;2023-06-14T08:36:26;6.35;;;3.85;;
17177;SDS011;8704;52.006;4.374;2023-06-14T08:38:54;6.47;;;4.25;;
17177;SDS011;8704;52.006;4.374;2023-06-14T08:41:22;7.38;;;3.90;;
17177;SDS011;8704;52.006;4.374;2023-06-14T08:43:51;6.32;;;3.55;;
17177;SDS011;8704;52.006;4.374;2023-06-14T08:46:19;7.82;;;3.83;;
17177;SDS011;8704;52.006;4.374;2023-06-14T08:48:49;10.90;;;3.90;;
17177;SDS011;8704;52.006;4.374;2023-06-14T08:51:19;8.45;;;3.85;;
17177;SDS011;8704;52.006;4.374;2023-06-14T08:53:51;9.32;;;4.18;;
17177;SDS011;8704;52.006;4.374;2023-06-14T08:56:24;11.65;;;3.97;;
17177;SDS011;8704;52.006;4.374;2023-06-14T08:58:54;7.03;;;3.90;;
17177;SDS011;8704;52.006;4.374;2023-06-14T09:01:23;10.32;;;4.00;;
17177;SDS011;8704;52.006;4.374;2023-06-14T09:03:52;9.95;;;4.15;;
17177;SDS011;8704;52.006;4.374;2023-06-14T09:08:51;7.82;;;3.70;;
17177;SDS011;8704;52.006;4.374;2023-06-14T09:11:20;8.70;;;3.53;;
17177;SDS011;8704;52.006;4.374;2023-06-14T09:13:48;5.25;;;3.55;;
17177;SDS011;8704;52.006;4.374;2023-06-14T09:16:17;5.90;;;3.70;;
17177;SDS011;8704;52.006;4.374;2023-06-14T09:18:45;7.07;;;3.63;;
17177;SDS011;8704;52.006;4.374;2023-06-14T09:21:16;7.95;;;3.97;;
17177;SDS011;8704;52.006;4.374;2023-06-14T09:23:45;5.13;;;3.22;;
17177;SDS011;8704;52.006;4.374;2023-06-14T09:26:14;7.30;;;3.28;;
17177;SDS011;8704;52.006;4.374;2023-06-14T09:28:44;4.88;;;3.25;;
17177;SDS011;8704;52.006;4.374;2023-06-14T09:31:13;9.77;;;3.80;;
17177;SDS011;8704;52.006;4.374;2023-06-14T09:33:43;7.72;;;3.33;;
17177;SDS011;8704;52.006;4.374;2023-06-14T09:36:16;5.85;;;3.00;;
17177;SDS011;8704;52.006;4.374;2023-06-14T09:38:51;7.28;;;3.17;;
17177;SDS011;8704;52.006;4.374;2023-06-14T09:41:20;7.65;;;3.08;;
17177;SDS011;8704;52.006;4.374;2023-06-14T09:43:48;6.15;;;3.13;;
17177;SDS011;8704;52.006;4.374;2023-06-14T09:46:17;5.35;;;2.97;;
17177;SDS011;8704;52.006;4.374;2023-06-14T09:48:45;6.10;;;2.97;;
17177;SDS011;8704;52.006;4.374;2023-06-14T09:51:13;6.25;;;3.13;;
17177;SDS011;8704;52.006;4.374;2023-06-14T09:53:46;7.28;;;3.40;;
17177;SDS011;8704;52.006;4.374;2023-06-14T09:56:16;10.15;;;3.20;;
17177;SDS011;8704;52.006;4.374;2023-06-14T09:58:49;8.65;;;3.50;;
17177;SDS011;8704;52.006;4.374;2023-06-14T10:01:33;5.70;;;2.80;;
17177;SDS011;8704;52.006;4.374;2023-06-14T10:04:03;8.20;;;2.95;;
17177;SDS011;8704;52.006;4.374;2023-06-14T10:06:39;6.70;;;3.08;;
17177;SDS011;8704;52.006;4.374;2023-06-14T10:09:08;7.97;;;3.17;;
17177;SDS011;8704;52.006;4.374;2023-06-14T10:11:37;4.03;;;2.58;;
17177;SDS011;8704;52.006;4.374;2023-06-14T10:14:10;5.13;;;2.90;;
17177;SDS011;8704;52.006;4.374;2023-06-14T10:16:42;6.88;;;3.30;;
17177;SDS011;8704;52.006;4.374;2023-06-14T10:19:17;6.25;;;2.63;;
17177;SDS011;8704;52.006;4.374;2023-06-14T10:21:51;6.22;;;3.15;;
17177;SDS011;8704;52.006;4.374;2023-06-14T10:24:25;8.75;;;2.80;;
17177;SDS011;8704;52.006;4.374;2023-06-14T10:26:57;6.45;;;3.00;;
17177;SDS011;8704;52.006;4.374;2023-06-14T10:29:26;6.80;;;2.88;;
17177;SDS011;8704;52.006;4.374;2023-06-14T10:31:58;5.15;;;2.78;;
17177;SDS011;8704;52.006;4.374;2023-06-14T10:34:27;5.72;;;2.80;;
17177;SDS011;8704;52.006;4.374;2023-06-14T10:37:11;5.03;;;3.00;;
17177;SDS011;8704;52.006;4.374;2023-06-14T10:39:41;4.88;;;2.42;;
17177;SDS011;8704;52.006;4.374;2023-06-14T10:42:10;8.00;;;2.63;;
17177;SDS011;8704;52.006;4.374;2023-06-14T10:44:39;5.97;;;2.70;;
17177;SDS011;8704;52.006;4.374;2023-06-14T10:47:09;4.65;;;2.35;;
17177;SDS011;8704;52.006;4.374;2023-06-14T10:49:40;4.22;;;2.50;;
17177;SDS011;8704;52.006;4.374;2023-06-14T10:52:11;3.80;;;2.60;;
17177;SDS011;8704;52.006;4.374;2023-06-14T10:55:01;3.80;;;2.20;;
17177;SDS011;8704;52.006;4.374;2023-06-14T10:57:32;7.75;;;2.70;;
17177;SDS011;8704;52.006;4.374;2023-06-14T11:00:16;3.67;;;2.40;;
17177;SDS011;8704;52.006;4.374;2023-06-14T11:02:51;4.80;;;2.28;;
17177;SDS011;8704;52.006;4.374;2023-06-14T11:05:48;5.85;;;2.30;;
17177;SDS011;8704;52.006;4.374;2023-06-14T11:08:32;4.35;;;2.28;;
17177;SDS011;8704;52.006;4.374;2023-06-14T11:11:37;6.57;;;2.40;;
17177;SDS011;8704;52.006;4.374;2023-06-14T11:14:09;4.10;;;2.33;;
17177;SDS011;8704;52.006;4.374;2023-06-14T11:16:37;5.18;;;2.22;;
17177;SDS011;8704;52.006;4.374;2023-06-14T11:19:05;4.80;;;2.30;;
17177;SDS011;8704;52.006;4.374;2023-06-14T11:21:34;5.30;;;2.42;;
17177;SDS011;8704;52.006;4.374;2023-06-14T11:24:10;3.80;;;2.45;;
17177;SDS011;8704;52.006;4.374;2023-06-14T11:26:39;5.75;;;2.30;;
17177;SDS011;8704;52.006;4.374;2023-06-14T11:29:08;8.63;;;2.40;;
17177;SDS011;8704;52.006;4.374;2023-06-14T11:31:36;4.75;;;2.17;;
17177;SDS011;8704;52.006;4.374;2023-06-14T11:34:06;5.28;;;2.20;;
17177;SDS011;8704;52.006;4.374;2023-06-14T11:36:35;4.97;;;2.00;;
17177;SDS011;8704;52.006;4.374;2023-06-14T11:39:04;4.57;;;2.10;;
17177;SDS011;8704;52.006;4.374;2023-06-14T11:41:35;4.50;;;2.50;;
17177;SDS011;8704;52.006;4.374;2023-06-14T11:46:33;3.28;;;1.95;;
17177;SDS011;8704;52.006;4.374;2023-06-14T11:49:02;3.90;;;2.03;;
17177;SDS011;8704;52.006;4.374;2023-06-14T11:51:31;5.00;;;2.00;;
17177;SDS011;8704;52.006;4.374;2023-06-14T11:54:00;4.03;;;1.90;;
17177;SDS011;8704;52.006;4.374;2023-06-14T11:56:29;2.95;;;1.90;;
17177;SDS011;8704;52.006;4.374;2023-06-14T11:58:59;3.75;;;1.88;;
17177;SDS011;8704;52.006;4.374;2023-06-14T12:03:59;5.75;;;2.05;;
17177;SDS011;8704;52.006;4.374;2023-06-14T12:06:28;5.15;;;1.90;;
17177;SDS011;8704;52.006;4.374;2023-06-14T12:08:59;3.00;;;1.73;;
17177;SDS011;8704;52.006;4.374;2023-06-14T12:11:32;3.50;;;1.85;;
17177;SDS011;8704;52.006;4.374;2023-06-14T12:14:03;3.63;;;1.77;;
17177;SDS011;8704;52.006;4.374;2023-06-14T12:16:33;7.57;;;1.70;;
17177;SDS011;8704;52.006;4.374;2023-06-14T12:19:08;6.55;;;1.90;;
17177;SDS011;8704;52.006;4.374;2023-06-14T12:21:39;4.20;;;2.00;;
17177;SDS011;8704;52.006;4.374;2023-06-14T12:24:08;4.32;;;2.20;;
17177;SDS011;8704;52.006;4.374;2023-06-14T12:26:39;4.07;;;2.15;;
17177;SDS011;8704;52.006;4.374;2023-06-14T12:29:09;5.47;;;2.33;;
17177;SDS011;8704;52.006;4.374;2023-06-14T12:31:39;3.40;;;2.08;;
17177;SDS011;8704;52.006;4.374;2023-06-14T12:34:08;2.72;;;1.77;;
17177;SDS011;8704;52.006;4.374;2023-06-14T12:36:36;3.85;;;2.00;;
17177;SDS011;8704;52.006;4.374;2023-06-14T12:39:08;3.47;;;1.77;;
17177;SDS011;8704;52.006;4.374;2023-06-14T12:41:36;3.95;;;1.92;;
17177;SDS011;8704;52.006;4.374;2023-06-14T12:44:04;3.67;;;2.15;;
17177;SDS011;8704;52.006;4.374;2023-06-14T12:46:33;3.13;;;1.83;;
17177;SDS011;8704;52.006;4.374;2023-06-14T12:49:03;2.85;;;2.10;;
17177;SDS011;8704;52.006;4.374;2023-06-14T12:51:31;4.95;;;1.90;;
17177;SDS011;8704;52.006;4.374;2023-06-14T12:53:59;4.18;;;1.70;;
17177;SDS011;8704;52.006;4.374;2023-06-14T12:56:27;7.43;;;1.85;;
17177;SDS011;8704;52.006;4.374;2023-06-14T12:58:55;3.63;;;2.00;;
17177;SDS011;8704;52.006;4.374;2023-06-14T13:01:23;6.15;;;2.00;;
17177;SDS011;8704;52.006;4.374;2023-06-14T13:03:52;4.32;;;2.10;;
17177;SDS011;8704;52.006;4.374;2023-06-14T13:06:21;3.35;;;1.80;;
17177;SDS011;8704;52.006;4.374;2023-06-14T13:08:49;2.42;;;1.80;;
17177;SDS011;8704;52.006;4.374;2023-06-14T13:11:17;4.60;;;1.73;;
17177;SDS011;8704;52.006;4.374;2023-06-14T13:13:45;7.82;;;2.10;;
17177;SDS011;8704;52.006;4.374;2023-06-14T13:16:13;3.17;;;2.10;;
17177;SDS011;8704;52.006;4.374;2023-06-14T13:18:41;4.32;;;1.90;;
17177;SDS011;8704;52.006;4.374;2023-06-14T13:21:11;3.42;;;1.95;;
17177;SDS011;8704;52.006;4.374;2023-06-14T13:23:38;2.75;;;1.98;;
17177;SDS011;8704;52.006;4.374;2023-06-14T13:26:06;4.78;;;1.80;;
17177;SDS011;8704;52.006;4.374;2023-06-14T13:28:34;4.90;;;1.90;;
17177;SDS011;8704;52.006;4.374;2023-06-14T13:31:02;2.92;;;1.75;;
17177;SDS011;8704;52.006;4.374;2023-06-14T13:33:30;5.40;;;1.85;;
17177;SDS011;8704;52.006;4.374;2023-06-14T13:35:59;5.15;;;2.30;;
17177;SDS011;8704;52.006;4.374;2023-06-14T13:38:28;4.47;;;1.83;;
17177;SDS011;8704;52.006;4.374;2023-06-14T13:40:56;3.83;;;1.98;;
17177;SDS011;8704;52.006;4.374;2023-06-14T13:43:24;4.07;;;1.90;;
17177;SDS011;8704;52.006;4.374;2023-06-14T13:45:53;4.50;;;1.85;;
17177;SDS011;8704;52.006;4.374;2023-06-14T13:48:21;3.65;;;2.00;;
17177;SDS011;8704;52.006;4.374;2023-06-14T13:50:49;4.00;;;1.90;;
17177;SDS011;8704;52.006;4.374;2023-06-14T13:53:17;3.25;;;2.00;;
17177;SDS011;8704;52.006;4.374;2023-06-14T13:55:47;6.38;;;2.05;;
17177;SDS011;8704;52.006;4.374;2023-06-14T13:58:15;4.10;;;2.00;;
17177;SDS011;8704;52.006;4.374;2023-06-14T14:00:43;4.35;;;1.90;;
17177;SDS011;8704;52.006;4.374;2023-06-14T14:03:11;3.85;;;1.77;;
17177;SDS011;8704;52.006;4.374;2023-06-14T14:05:39;3.35;;;1.83;;
17177;SDS011;8704;52.006;4.374;2023-06-14T14:08:07;3.10;;;1.80;;
17177;SDS011;8704;52.006;4.374;2023-06-14T14:10:35;3.88;;;1.98;;
17177;SDS011;8704;52.006;4.374;2023-06-14T14:13:04;5.90;;;2.03;;
17177;SDS011;8704;52.006;4.374;2023-06-14T14:15:32;5.20;;;2.00;;
17177;SDS011;8704;52.006;4.374;2023-06-14T14:18:01;3.67;;;2.25;;
17177;SDS011;8704;52.006;4.374;2023-06-14T14:20:30;3.75;;;1.90;;
17177;SDS011;8704;52.006;4.374;2023-06-14T14:22:58;5.18;;;2.00;;
17177;SDS011;8704;52.006;4.374;2023-06-14T14:25:26;3.25;;;1.75;;
17177;SDS011;8704;52.006;4.374;2023-06-14T14:27:54;8.57;;;2.13;;
17177;SDS011;8704;52.006;4.374;2023-06-14T14:30:24;3.45;;;1.80;;
17177;SDS011;8704;52.006;4.374;2023-06-14T14:32:52;3.10;;;1.70;;
17177;SDS011;8704;52.006;4.374;2023-06-14T14:35:20;3.45;;;1.92;;
17177;SDS011;8704;52.006;4.374;2023-06-14T14:37:51;3.00;;;1.73;;
17177;SDS011;8704;52.006;4.374;2023-06-14T14:40:20;2.47;;;1.85;;
17177;SDS011;8704;52.006;4.374;2023-06-14T14:42:48;2.80;;;1.77;;
17177;SDS011;8704;52.006;4.374;2023-06-14T14:45:16;3.80;;;2.13;;
17177;SDS011;8704;52.006;4.374;2023-06-14T14:47:45;2.60;;;1.98;;
17177;SDS011;8704;52.006;4.374;2023-06-14T14:50:13;5.57;;;2.10;;
17177;SDS011;8704;52.006;4.374;2023-06-14T14:52:43;3.58;;;2.10;;
17177;SDS011;8704;52.006;4.374;2023-06-14T14:55:11;5.15;;;2.00;;
17177;SDS011;8704;52.006;4.374;2023-06-14T14:57:39;3.85;;;1.80;;
17177;SDS011;8704;52.006;4.374;2023-06-14T15:00:07;3.67;;;2.08;;
17177;SDS011;8704;52.006;4.374;2023-06-14T15:02:36;2.78;;;1.90;;
17177;SDS011;8704;52.006;4.374;2023-06-14T15:05:08;5.05;;;2.20;;
17177;SDS011;8704;52.006;4.374;2023-06-14T15:07:36;3.13;;;2.10;;
17177;SDS011;8704;52.006;4.374;2023-06-14T15:10:06;3.08;;;1.90;;
17177;SDS011;8704;52.006;4.374;2023-06-14T15:12:35;3.33;;;2.22;;
17177;SDS011;8704;52.006;4.374;2023-06-14T15:15:03;5.15;;;2.13;;
17177;SDS011;8704;52.006;4.374;2023-06-14T15:17:32;3.42;;;1.77;;
17177;SDS011;8704;52.006;4.374;2023-06-14T15:20:00;4.88;;;2.45;;
17177;SDS011;8704;52.006;4.374;2023-06-14T15:22:30;3.83;;;2.00;;
17177;SDS011;8704;52.006;4.374;2023-06-14T15:24:58;4.78;;;1.98;;
17177;SDS011;8704;52.006;4.374;2023-06-14T15:27:26;4.18;;;2.10;;